West Akron, Ohio
Current Conditions -  °F | °C
As of 5:13 AM on Tuesday 21 Oct 2014 (Local Time) from KAKR Reporting Station
Light Rain Light Rain  
Wind Chill: 53°   Ceiling: 600
Heat Index: 53°   Visibility: 3mi
Dew Point: 50°   Wind: 7mph
Humidity: 89%   Direction: 330°NNW
Pressure: 29.84"   Gusts: NA
Location:  41.0707°N, 81.5458°W
Report Text: KAKR 210913Z AUTO 33006KT 3SM -RA BR BKN006 OVC011 12/10 A2984 RMK AO2 CIG 004V009 P0000 T01170100
Loading
Personal Weather Stations






























Interactive Weather Map
Tropical Storm Tracking
New forecast layout! Learn more

10-Day Weather Forecast

Advertisements
Track Severe Weather on mobile